Terminal Aerodrome Forecast
Issued by NWS

Current Version | Previous Version | Graphics & Text | Print | Product List | Glossary On
Versions: 1 2 3 4 5 6 7 8 9 10 11 12 13 14 15 16 17 18 19
000
FTUS41 KILN 261400 AAA
TAFLUK
TAF AMD
KLUK 261435Z 2615/2712 34011KT P6SM SCT022 OVC040
     FM261600 32009KT P6SM SCT018 BKN200
     FM262300 01003KT P6SM FEW020 BKN080=

USA.gov is the U.S. government's official web portal to all federal, state and local government web resources and services.